Time,TemperatureF,DewpointF,PressureIn,WindDirection,WindDirectionDegrees,WindSpeedMPH,WindSpeedGustMPH,Humidity,HourlyPrecipIn,Conditions,Clouds,dailyrainin,SoftwareType,DateUTC
2013-07-01 00:13:00,69.0,68.0,29.83,North,5,0.0,0.0,96,0.00,,,0.01,weatherlink.com 1.10,2013-07-01 04:13:00,
2013-07-01 00:28:00,68.8,68.0,29.84,North,5,0.0,1.0,96,0.00,,,0.01,weatherlink.com 1.10,2013-07-01 04:28:00,
2013-07-01 00:43:00,68.8,68.0,29.83,North,5,0.0,1.0,96,0.00,,,0.01,weatherlink.com 1.10,2013-07-01 04:43:00,
2013-07-01 00:58:00,68.7,68.0,29.83,North,5,0.0,0.0,96,0.00,,,0.01,weatherlink.com 1.10,2013-07-01 04:58:00,
2013-07-01 01:13:00,68.7,68.0,29.83,North,5,0.0,1.0,96,0.00,,,0.01,weatherlink.com 1.10,2013-07-01 05:13:00,
2013-07-01 01:28:00,68.7,68.0,29.83,North,5,0.0,0.0,96,0.00,,,0.01,weatherlink.com 1.10,2013-07-01 05:28:00,
2013-07-01 01:43:00,68.6,68.0,29.84,North,5,0.0,1.0,96,0.00,,,0.01,weatherlink.com 1.10,2013-07-01 05:43:00,
2013-07-01 01:58:00,68.7,68.0,29.83,North,5,0.0,1.0,96,0.00,,,0.00,weatherlink.com 1.10,2013-07-01 05:58:00,
2013-07-01 02:13:00,68.6,68.0,29.82,NW,305,0.0,2.0,96,0.00,,,0.00,weatherlink.com 1.10,2013-07-01 06:13:00,
2013-07-01 02:28:00,68.6,68.0,29.82,NNW,328,0.0,2.0,96,0.00,,,0.00,weatherlink.com 1.10,2013-07-01 06:28:00,
2013-07-01 02:43:00,68.6,68.0,29.82,NNW,339,0.0,2.0,96,0.00,,,0.00,weatherlink.com 1.10,2013-07-01 06:43:00,
2013-07-01 02:58:00,68.5,68.0,29.82,SSW,198,0.0,3.0,97,0.00,,,0.00,weatherlink.com 1.10,2013-07-01 06:58:00,
2013-07-01 03:13:00,68.5,68.0,29.81,SE,136,0.0,2.0,97,0.00,,,0.00,weatherlink.com 1.10,2013-07-01 07:13:00,
2013-07-01 03:28:00,68.5,68.0,29.81,SSE,163,0.0,2.0,97,0.00,,,0.00,weatherlink.com 1.10,2013-07-01 07:28:00,
2013-07-01 03:44:00,68.4,68.0,29.81,SE,138,0.0,2.0,97,0.00,,,0.00,weatherlink.com 1.10,2013-07-01 07:44:00,
2013-07-01 03:59:00,68.5,68.0,29.81,NNW,327,0.0,2.0,97,0.00,,,0.00,weatherlink.com 1.10,2013-07-01 07:59:00,
2013-07-01 04:14:00,68.5,68.0,29.81,NNW,331,0.0,1.0,97,0.00,,,0.00,weatherlink.com 1.10,2013-07-01 08:14:00,
2013-07-01 04:29:00,68.5,68.0,29.82,SE,128,0.0,2.0,97,0.00,,,0.00,weatherlink.com 1.10,2013-07-01 08:29:00,
2013-07-01 04:44:00,68.5,68.0,29.82,SSE,167,0.0,1.0,97,0.00,,,0.00,weatherlink.com 1.10,2013-07-01 08:44:00,
2013-07-01 04:59:00,68.5,68.0,29.82,SSE,167,0.0,1.0,97,0.00,,,0.00,weatherlink.com 1.10,2013-07-01 08:59:00,
2013-07-01 05:14:00,68.6,68.0,29.83,SSE,156,0.0,2.0,97,0.00,,,0.00,weatherlink.com 1.10,2013-07-01 09:14:00,
2013-07-01 05:29:00,68.5,68.0,29.84,SE,142,1.0,3.0,97,0.00,,,0.00,weatherlink.com 1.10,2013-07-01 09:29:00,
2013-07-01 05:44:00,68.5,68.0,29.84,SSW,192,0.0,1.0,97,0.00,,,0.00,weatherlink.com 1.10,2013-07-01 09:44:00,
2013-07-01 05:59:00,68.5,68.0,29.84,SSW,192,1.0,1.0,97,0.00,,,0.00,weatherlink.com 1.10,2013-07-01 09:59:00,
2013-07-01 06:14:00,68.5,68.0,29.85,SSW,192,0.0,1.0,97,0.00,,,0.00,weatherlink.com 1.10,2013-07-01 10:14:00,
2013-07-01 06:29:00,68.5,68.0,29.85,SSW,192,0.0,2.0,97,0.00,,,0.00,weatherlink.com 1.10,2013-07-01 10:29:00,
2013-07-01 06:44:00,68.5,68.0,29.84,SSW,192,0.0,2.0,97,0.00,,,0.00,weatherlink.com 1.10,2013-07-01 10:44:00,
2013-07-01 06:59:00,68.5,68.0,29.85,SSW,192,0.0,2.0,97,0.00,,,0.00,weatherlink.com 1.10,2013-07-01 10:59:00,
2013-07-01 07:14:00,68.6,68.0,29.86,SSW,192,0.0,0.0,97,0.00,,,0.00,weatherlink.com 1.10,2013-07-01 11:14:00,
2013-07-01 07:29:00,68.7,68.0,29.85,NNE,20,0.0,3.0,97,0.00,,,0.00,weatherlink.com 1.10,2013-07-01 11:29:00,
2013-07-01 07:44:00,68.9,68.0,29.85,ENE,78,0.0,0.0,97,0.00,,,0.00,weatherlink.com 1.10,2013-07-01 11:44:00,
2013-07-01 07:59:00,68.8,68.0,29.85,ENE,78,0.0,1.0,97,0.00,,,0.00,weatherlink.com 1.10,2013-07-01 11:59:00,
2013-07-01 08:14:00,69.0,68.0,29.86,SSE,152,0.0,2.0,97,0.00,,,0.00,weatherlink.com 1.10,2013-07-01 12:14:00,
2013-07-01 08:29:00,69.0,68.0,29.86,ESE,103,0.0,2.0,97,0.00,,,0.00,weatherlink.com 1.10,2013-07-01 12:29:00,
2013-07-01 08:44:00,69.3,69.0,29.86,South,171,0.0,3.0,97,0.00,,,0.00,weatherlink.com 1.10,2013-07-01 12:44:00,
2013-07-01 08:59:00,69.5,69.0,29.87,South,188,0.0,3.0,97,0.00,,,0.00,weatherlink.com 1.10,2013-07-01 12:59:00,
2013-07-01 09:14:00,70.3,69.0,29.87,WSW,237,1.0,2.0,97,0.00,,,0.00,weatherlink.com 1.10,2013-07-01 13:14:00,
2013-07-01 09:29:00,70.9,70.0,29.88,SE,145,2.0,4.0,97,0.00,,,0.00,weatherlink.com 1.10,2013-07-01 13:29:00,
2013-07-01 09:44:00,71.2,70.0,29.89,ESE,110,2.0,4.0,97,0.00,,,0.00,weatherlink.com 1.10,2013-07-01 13:44:00,
2013-07-01 09:59:00,71.8,71.0,29.88,South,182,1.0,4.0,96,0.00,,,0.00,weatherlink.com 1.10,2013-07-01 13:59:00,
2013-07-01 10:14:00,71.9,70.0,29.89,SSW,194,0.0,4.0,93,0.00,,,0.00,weatherlink.com 1.10,2013-07-01 14:14:00,
2013-07-01 10:29:00,72.5,70.0,29.89,SE,126,3.0,4.0,92,0.01,,,0.01,weatherlink.com 1.10,2013-07-01 14:29:00,
2013-07-01 10:44:00,74.2,71.0,29.89,SSE,154,3.0,4.0,89,0.01,,,0.01,weatherlink.com 1.10,2013-07-01 14:44:00,
2013-07-01 10:59:00,77.3,71.0,29.89,SE,130,2.0,5.0,80,0.01,,,0.01,weatherlink.com 1.10,2013-07-01 14:59:00,
2013-07-01 11:14:00,77.5,71.0,29.89,SSW,200,1.0,3.0,80,0.01,,,0.01,weatherlink.com 1.10,2013-07-01 15:14:00,
2013-07-01 11:29:00,78.4,71.0,29.89,SE,144,0.0,6.0,79,0.00,,,0.01,weatherlink.com 1.10,2013-07-01 15:29:00,
2013-07-01 11:44:00,79.0,70.0,29.89,ESE,104,2.0,4.0,74,0.00,,,0.01,weatherlink.com 1.10,2013-07-01 15:44:00,
2013-07-01 11:59:00,80.2,70.0,29.88,East,80,3.0,5.0,72,0.00,,,0.01,weatherlink.com 1.10,2013-07-01 15:59:00,
2013-07-01 12:14:00,80.8,70.0,29.88,NNW,333,1.0,3.0,70,0.00,,,0.01,weatherlink.com 1.10,2013-07-01 16:14:00,
2013-07-01 12:29:00,81.6,70.0,29.88,SSE,149,1.0,6.0,68,0.00,,,0.01,weatherlink.com 1.10,2013-07-01 16:29:00,
2013-07-01 12:44:00,81.2,69.0,29.87,West,259,2.0,3.0,66,0.00,,,0.01,weatherlink.com 1.10,2013-07-01 16:44:00,
2013-07-01 13:00:00,82.9,72.0,29.87,SE,128,1.0,5.0,70,0.00,,,0.01,weatherlink.com 1.10,2013-07-01 17:00:00,
2013-07-01 13:15:00,83.6,70.0,29.88,SSW,207,3.0,6.0,63,0.00,,,0.01,weatherlink.com 1.10,2013-07-01 17:15:00,
2013-07-01 13:30:00,83.0,69.0,29.88,ENE,63,2.0,8.0,63,0.00,,,0.01,weatherlink.com 1.10,2013-07-01 17:30:00,
2013-07-01 13:45:00,83.9,70.0,29.88,North,355,1.0,8.0,63,0.00,,,0.01,weatherlink.com 1.10,2013-07-01 17:45:00,
2013-07-01 14:00:00,84.7,70.0,29.88,WSW,258,1.0,4.0,61,0.00,,,0.01,weatherlink.com 1.10,2013-07-01 18:00:00,
2013-07-01 14:15:00,84.3,68.0,29.88,SE,146,1.0,6.0,59,0.00,,,0.01,weatherlink.com 1.10,2013-07-01 18:15:00,
2013-07-01 14:30:00,83.2,69.0,29.88,SSW,209,4.0,5.0,63,0.00,,,0.01,weatherlink.com 1.10,2013-07-01 18:30:00,
2013-07-01 14:45:00,82.4,69.0,29.88,ESE,117,5.0,5.0,63,0.00,,,0.01,weatherlink.com 1.10,2013-07-01 18:45:00,
2013-07-01 15:00:00,83.6,70.0,29.88,SE,131,0.0,5.0,64,0.00,,,0.01,weatherlink.com 1.10,2013-07-01 19:00:00,
2013-07-01 15:15:00,85.6,70.0,29.87,WSW,242,3.0,7.0,60,0.00,,,0.01,weatherlink.com 1.10,2013-07-01 19:15:00,
2013-07-01 15:30:00,85.4,71.0,29.87,North,5,1.0,3.0,62,0.00,,,0.01,weatherlink.com 1.10,2013-07-01 19:30:00,
2013-07-01 15:45:00,85.2,70.0,29.87,SW,218,1.0,6.0,60,0.00,,,0.01,weatherlink.com 1.10,2013-07-01 19:45:00,
2013-07-01 16:00:00,84.0,70.0,29.87,West,271,0.0,10.0,62,0.00,,,0.01,weatherlink.com 1.10,2013-07-01 20:00:00,
2013-07-01 16:15:00,83.2,71.0,29.88,WSW,249,2.0,7.0,66,0.00,,,0.01,weatherlink.com 1.10,2013-07-01 20:15:00,
2013-07-01 16:30:00,83.6,71.0,29.87,South,171,0.0,8.0,66,0.00,,,0.01,weatherlink.com 1.10,2013-07-01 20:30:00,
2013-07-01 16:45:00,84.3,73.0,29.87,NNW,329,2.0,4.0,69,0.00,,,0.01,weatherlink.com 1.10,2013-07-01 20:45:00,
2013-07-01 17:00:00,83.8,71.0,29.87,SSE,157,5.0,6.0,66,0.00,,,0.01,weatherlink.com 1.10,2013-07-01 21:00:00,
2013-07-01 17:15:00,82.9,71.0,29.88,North,9,0.0,6.0,67,0.00,,,0.01,weatherlink.com 1.10,2013-07-01 21:15:00,
2013-07-01 17:30:00,83.3,70.0,29.88,West,264,0.0,6.0,65,0.00,,,0.01,weatherlink.com 1.10,2013-07-01 21:30:00,
2013-07-01 17:45:00,83.2,72.0,29.88,North,360,2.0,5.0,68,0.00,,,0.01,weatherlink.com 1.10,2013-07-01 21:45:00,
2013-07-01 18:00:00,82.4,71.0,29.88,West,262,2.0,5.0,69,0.00,,,0.01,weatherlink.com 1.10,2013-07-01 22:00:00,
2013-07-01 18:15:00,82.5,72.0,29.88,SE,139,3.0,5.0,71,0.00,,,0.01,weatherlink.com 1.10,2013-07-01 22:15:00,
2013-07-01 18:30:00,82.6,71.0,29.88,SSE,163,2.0,4.0,69,0.00,,,0.01,weatherlink.com 1.10,2013-07-01 22:30:00,
2013-07-01 18:45:00,81.0,71.0,29.88,SSW,202,2.0,4.0,71,0.00,,,0.01,weatherlink.com 1.10,2013-07-01 22:45:00,
2013-07-01 19:00:00,80.5,71.0,29.88,SSW,213,2.0,7.0,73,0.00,,,0.01,weatherlink.com 1.10,2013-07-01 23:00:00,
2013-07-01 19:15:00,79.8,71.0,29.88,SSE,151,2.0,5.0,74,0.00,,,0.01,weatherlink.com 1.10,2013-07-01 23:15:00,
2013-07-01 19:30:00,79.3,71.0,29.89,SSW,211,2.0,6.0,76,0.00,,,0.01,weatherlink.com 1.10,2013-07-01 23:30:00,
2013-07-01 19:45:00,78.9,71.0,29.89,SE,146,1.0,5.0,76,0.00,,,0.01,weatherlink.com 1.10,2013-07-01 23:45:00,
2013-07-01 20:00:00,78.3,71.0,29.90,SSW,201,0.0,7.0,78,0.00,,,0.01,weatherlink.com 1.10,2013-07-02 00:00:00,
2013-07-01 20:15:00,77.7,70.0,29.91,SSE,147,2.0,5.0,78,0.00,,,0.01,weatherlink.com 1.10,2013-07-02 00:15:00,
2013-07-01 20:30:00,76.9,70.0,29.91,SSW,213,2.0,4.0,79,0.00,,,0.01,weatherlink.com 1.10,2013-07-02 00:30:00,
2013-07-01 20:45:00,76.3,70.0,29.90,NW,307,0.0,3.0,80,0.00,,,0.01,weatherlink.com 1.10,2013-07-02 00:45:00,
2013-07-01 21:00:00,75.7,70.0,29.91,SSW,195,0.0,1.0,82,0.00,,,0.01,weatherlink.com 1.10,2013-07-02 01:00:00,
2013-07-01 21:15:00,75.0,70.0,29.91,South,179,0.0,2.0,83,0.00,,,0.01,weatherlink.com 1.10,2013-07-02 01:15:00,
2013-07-01 21:30:00,74.4,70.0,29.92,South,179,0.0,1.0,85,0.00,,,0.01,weatherlink.com 1.10,2013-07-02 01:30:00,
2013-07-01 21:45:00,74.0,70.0,29.93,South,179,0.0,0.0,87,0.00,,,0.01,weatherlink.com 1.10,2013-07-02 01:45:00,
2013-07-01 22:00:00,73.6,70.0,29.93,South,179,0.0,0.0,88,0.00,,,0.01,weatherlink.com 1.10,2013-07-02 02:00:00,
2013-07-01 22:15:00,73.4,70.0,29.93,South,179,0.0,0.0,89,0.00,,,0.01,weatherlink.com 1.10,2013-07-02 02:15:00,
2013-07-01 22:30:00,73.3,70.0,29.94,SSW,200,0.0,1.0,89,0.00,,,0.01,weatherlink.com 1.10,2013-07-02 02:30:00,
2013-07-01 22:45:00,73.3,70.0,29.94,SE,136,0.0,0.0,89,0.00,,,0.01,weatherlink.com 1.10,2013-07-02 02:45:00,
2013-07-01 23:00:00,73.1,70.0,29.95,SW,221,0.0,1.0,89,0.00,,,0.01,weatherlink.com 1.10,2013-07-02 03:00:00,
2013-07-01 23:15:00,72.9,70.0,29.95,WSW,242,0.0,0.0,90,0.00,,,0.01,weatherlink.com 1.10,2013-07-02 03:15:00,
2013-07-01 23:30:00,72.8,70.0,29.95,East,94,0.0,1.0,90,0.00,,,0.01,weatherlink.com 1.10,2013-07-02 03:30:00,
2013-07-01 23:45:00,72.8,70.0,29.96,South,182,0.0,4.0,90,0.00,,,0.01,weatherlink.com 1.10,2013-07-02 03:45:00,